createdAt,value
2023-03-29T00:00:11.291Z,1.23
2023-03-29T00:02:40.049Z,1.13
2023-03-29T00:05:09.037Z,1.33
2023-03-29T00:07:36.710Z,1.53
2023-03-29T00:10:04.856Z,2.93
2023-03-29T00:12:33.105Z,1.53
2023-03-29T00:15:00.882Z,2.70
2023-03-29T00:17:29.043Z,1.30
2023-03-29T00:19:56.848Z,2.47
2023-03-29T00:22:24.640Z,1.90
2023-03-29T00:24:55.852Z,2.70
2023-03-29T00:27:23.670Z,1.07
2023-03-29T00:29:51.432Z,2.00
2023-03-29T00:32:19.152Z,1.47
2023-03-29T00:34:50.941Z,2.13
2023-03-29T00:37:19.445Z,3.20
2023-03-29T00:39:47.072Z,1.23
2023-03-29T00:42:16.910Z,1.57
2023-03-29T00:45:01.796Z,1.27
2023-03-29T00:47:52.140Z,1.13
2023-03-29T00:50:31.008Z,1.77
2023-03-29T00:53:09.653Z,1.50
2023-03-29T00:56:01.743Z,0.80
2023-03-29T00:58:37.766Z,3.20
2023-03-29T01:01:11.218Z,2.20
2023-03-29T01:03:46.695Z,1.77
2023-03-29T01:06:19.172Z,1.33
2023-03-29T01:09:01.529Z,1.90
2023-03-29T01:11:54.892Z,2.03
2023-03-29T01:14:40.220Z,4.20
2023-03-29T01:17:08.594Z,2.03
2023-03-29T01:19:44.369Z,2.03
2023-03-29T01:22:31.532Z,1.30
2023-03-29T01:25:32.147Z,2.27
2023-03-29T01:28:02.700Z,1.53
2023-03-29T01:30:45.678Z,2.33
2023-03-29T01:33:21.381Z,1.92
2023-03-29T01:36:01.972Z,1.63
2023-03-29T01:38:48.582Z,2.73
2023-03-29T01:41:16.683Z,1.17
2023-03-29T01:43:56.633Z,1.63
2023-03-29T01:46:29.436Z,1.83
2023-03-29T01:51:37.983Z,1.83
2023-03-29T01:54:15.413Z,3.37
2023-03-29T01:56:45.772Z,3.40
2023-03-29T01:59:22.759Z,4.57
2023-03-29T02:01:54.845Z,5.27
2023-03-29T02:04:30.917Z,5.35
2023-03-29T02:07:01.985Z,5.33
2023-03-29T02:09:32.149Z,3.93
2023-03-29T02:12:02.220Z,2.50
2023-03-29T02:14:33.555Z,19.87
2023-03-29T02:17:23.252Z,7.73
2023-03-29T02:20:17.675Z,9.57
2023-03-29T02:23:14.562Z,2.33
2023-03-29T02:25:45.738Z,3.30
2023-03-29T02:28:14.383Z,2.73
2023-03-29T02:31:20.344Z,1.87
2023-03-29T02:33:54.962Z,2.17
2023-03-29T02:36:31.957Z,2.37
2023-03-29T02:39:02.065Z,3.77
2023-03-29T02:41:30.540Z,7.77
2023-03-29T02:44:00.393Z,3.53
2023-03-29T02:46:28.589Z,3.43
2023-03-29T02:48:58.527Z,3.23
2023-03-29T02:51:32.747Z,3.13
2023-03-29T02:54:06.116Z,3.60
2023-03-29T02:56:49.339Z,3.73
2023-03-29T03:01:47.268Z,4.70
2023-03-29T03:04:15.698Z,1.67
2023-03-29T03:06:44.611Z,2.17
2023-03-29T03:09:12.659Z,2.07
2023-03-29T03:11:43.768Z,2.47
2023-03-29T03:14:11.731Z,3.67
2023-03-29T03:16:39.570Z,3.57
2023-03-29T03:19:07.526Z,2.70
2023-03-29T03:21:37.830Z,2.97
2023-03-29T03:24:07.945Z,1.70
2023-03-29T03:26:36.386Z,6.60
2023-03-29T03:29:06.318Z,2.93
2023-03-29T03:31:55.362Z,5.00
2023-03-29T03:34:43.941Z,3.87
2023-03-29T03:37:12.278Z,4.93
2023-03-29T03:39:40.272Z,9.30
2023-03-29T03:42:09.858Z,12.13
2023-03-29T03:44:42.877Z,8.30
2023-03-29T03:47:42.936Z,9.37
2023-03-29T03:50:23.156Z,12.27
2023-03-29T03:52:50.854Z,12.40
2023-03-29T03:55:18.604Z,11.30
2023-03-29T03:57:53.417Z,8.87
2023-03-29T04:00:21.770Z,7.00
2023-03-29T04:03:02.477Z,8.43
2023-03-29T04:05:31.464Z,13.20
2023-03-29T04:08:00.459Z,9.57
2023-03-29T04:10:58.572Z,2.50
2023-03-29T04:13:31.988Z,8.53
2023-03-29T04:16:14.106Z,19.23
2023-03-29T04:18:41.963Z,11.50
2023-03-29T04:21:10.103Z,7.03
2023-03-29T04:23:38.654Z,5.83
2023-03-29T04:26:06.586Z,10.17
2023-03-29T04:28:47.604Z,20.90
2023-03-29T04:31:20.442Z,15.00
2023-03-29T04:34:01.923Z,12.33
2023-03-29T04:36:29.828Z,12.83
2023-03-29T04:39:02.028Z,13.17
2023-03-29T04:44:07.014Z,15.53
2023-03-29T04:46:35.580Z,24.47
2023-03-29T04:49:18.182Z,26.50
2023-03-29T04:51:49.918Z,17.45
2023-03-29T04:54:21.849Z,13.73
2023-03-29T04:57:17.445Z,3.80
2023-03-29T05:00:15.372Z,2.75
2023-03-29T05:03:01.296Z,1.58
2023-03-29T05:05:32.319Z,8.53
2023-03-29T05:08:03.544Z,6.83
2023-03-29T05:10:54.251Z,11.47
2023-03-29T05:13:22.314Z,11.93
2023-03-29T05:15:50.050Z,12.77
2023-03-29T05:18:17.833Z,11.77
2023-03-29T05:20:45.963Z,10.57
2023-03-29T05:23:17.644Z,8.73
2023-03-29T05:26:04.767Z,7.93
2023-03-29T05:28:33.885Z,10.07
2023-03-29T05:31:06.029Z,10.57
2023-03-29T05:33:36.764Z,11.50
2023-03-29T05:36:09.289Z,7.53
2023-03-29T05:38:42.406Z,9.07
2023-03-29T05:41:10.913Z,7.33
2023-03-29T05:43:58.028Z,9.30
2023-03-29T05:46:27.126Z,9.20
2023-03-29T05:48:57.626Z,9.47
2023-03-29T05:51:42.967Z,24.23
2023-03-29T05:54:10.887Z,19.27
2023-03-29T05:56:38.711Z,7.13
2023-03-29T05:59:08.557Z,13.70
2023-03-29T06:01:36.993Z,7.23
2023-03-29T06:04:08.474Z,7.83
2023-03-29T06:06:53.171Z,7.13
2023-03-29T06:09:21.339Z,5.00
2023-03-29T06:11:56.555Z,5.20
2023-03-29T06:14:31.485Z,7.63
2023-03-29T06:17:12.394Z,8.93
2023-03-29T06:19:40.386Z,4.87
2023-03-29T06:22:08.119Z,4.27
2023-03-29T06:24:36.022Z,5.93
2023-03-29T06:27:10.672Z,8.13
2023-03-29T06:29:38.674Z,3.43
2023-03-29T06:32:07.074Z,2.73
2023-03-29T06:34:51.006Z,3.63
2023-03-29T06:37:32.052Z,7.47
2023-03-29T06:40:10.456Z,2.33
2023-03-29T06:42:44.767Z,2.93
2023-03-29T06:45:37.875Z,3.03
2023-03-29T06:48:12.381Z,6.07
2023-03-29T06:50:41.201Z,5.00
2023-03-29T06:53:15.793Z,8.97
2023-03-29T06:55:46.037Z,7.40
2023-03-29T06:58:37.337Z,8.80
2023-03-29T07:01:14.381Z,4.17
2023-03-29T07:03:57.660Z,4.93
2023-03-29T07:06:31.979Z,8.48
2023-03-29T07:09:01.846Z,8.20
2023-03-29T07:11:47.686Z,5.28
2023-03-29T07:14:28.659Z,1.63
2023-03-29T07:16:58.508Z,3.33
2023-03-29T07:19:34.555Z,9.27
2023-03-29T07:22:08.412Z,3.60
2023-03-29T07:24:47.063Z,3.50
2023-03-29T07:27:15.033Z,5.78
2023-03-29T07:29:43.281Z,6.88
2023-03-29T07:32:11.508Z,8.25
2023-03-29T07:34:59.392Z,10.15
2023-03-29T07:37:34.480Z,13.98
2023-03-29T07:40:04.682Z,6.60
2023-03-29T07:42:32.319Z,11.23
2023-03-29T07:45:00.333Z,14.90
2023-03-29T07:47:36.375Z,13.15
2023-03-29T07:50:04.937Z,10.25
2023-03-29T07:52:33.020Z,4.53
2023-03-29T07:55:02.436Z,5.15
2023-03-29T07:57:53.677Z,7.32
2023-03-29T08:00:25.337Z,4.05
2023-03-29T08:03:13.278Z,2.15
2023-03-29T08:05:44.195Z,6.57
2023-03-29T08:08:14.515Z,6.30
2023-03-29T08:10:55.414Z,3.95
2023-03-29T08:13:35.165Z,2.25
2023-03-29T08:16:29.121Z,4.07
2023-03-29T08:19:05.375Z,2.58
2023-03-29T08:21:52.307Z,4.03
2023-03-29T08:24:22.348Z,2.33
2023-03-29T08:26:56.161Z,2.53
2023-03-29T08:29:27.159Z,2.97
2023-03-29T08:31:57.296Z,2.47
2023-03-29T08:34:25.830Z,2.80
2023-03-29T08:37:15.884Z,3.33
2023-03-29T08:39:47.203Z,3.13
2023-03-29T08:42:59.902Z,1.25
2023-03-29T08:46:00.304Z,1.10
2023-03-29T08:48:46.094Z,1.85
2023-03-29T08:51:27.704Z,1.10
2023-03-29T08:54:38.870Z,3.40
2023-03-29T08:57:55.031Z,1.83
2023-03-29T09:00:33.170Z,0.95
2023-03-29T09:03:05.471Z,0.60
2023-03-29T09:05:44.302Z,1.75
2023-03-29T09:08:23.481Z,2.28
2023-03-29T09:11:15.329Z,0.77
2023-03-29T09:14:05.493Z,0.63
2023-03-29T09:16:48.609Z,0.47
2023-03-29T09:20:01.868Z,1.25
2023-03-29T09:22:57.808Z,0.95
2023-03-29T09:25:54.145Z,0.60
2023-03-29T09:28:40.791Z,3.22
2023-03-29T09:31:23.175Z,1.65
2023-03-29T09:34:04.596Z,1.88
2023-03-29T09:37:21.829Z,1.02
2023-03-29T09:39:53.247Z,0.77
2023-03-29T09:42:27.974Z,0.77
2023-03-29T09:45:08.633Z,0.90
2023-03-29T09:48:16.874Z,1.65
2023-03-29T09:50:52.387Z,1.08
2023-03-29T09:53:22.100Z,1.95
2023-03-29T09:56:00.597Z,1.98
2023-03-29T09:58:44.544Z,3.92
2023-03-29T10:01:15.889Z,1.25
2023-03-29T10:03:50.604Z,1.48
2023-03-29T10:06:20.729Z,1.75
2023-03-29T10:08:59.097Z,1.52
2023-03-29T10:11:38.543Z,5.20
2023-03-29T10:14:13.455Z,7.07
2023-03-29T10:16:47.771Z,2.67
2023-03-29T10:19:17.509Z,1.60
2023-03-29T10:21:48.999Z,1.83
2023-03-29T10:24:26.700Z,1.00
2023-03-29T10:26:59.469Z,1.33
2023-03-29T10:29:27.956Z,1.63
2023-03-29T10:31:55.912Z,1.17
2023-03-29T10:34:26.418Z,2.53
2023-03-29T10:37:03.374Z,2.63
2023-03-29T10:39:34.790Z,6.57
2023-03-29T10:42:04.250Z,0.82
2023-03-29T10:44:35.612Z,1.13
2023-03-29T10:47:15.251Z,2.30
2023-03-29T10:49:47.371Z,3.33
2023-03-29T10:52:17.357Z,3.28
2023-03-29T10:54:46.928Z,0.93
2023-03-29T10:57:35.309Z,1.15
2023-03-29T11:00:16.385Z,2.78
2023-03-29T11:02:47.163Z,1.85
2023-03-29T11:05:14.913Z,1.88
2023-03-29T11:07:58.917Z,5.18
2023-03-29T11:10:46.897Z,6.95
2023-03-29T11:13:38.335Z,0.80
2023-03-29T11:16:35.008Z,3.13
2023-03-29T11:19:33.378Z,2.08
2023-03-29T11:22:17.677Z,1.33
2023-03-29T11:24:48.134Z,8.20
2023-03-29T11:27:38.844Z,2.67
2023-03-29T11:30:29.207Z,3.63
2023-03-29T11:33:21.248Z,4.97
2023-03-29T11:36:08.006Z,1.73
2023-03-29T11:38:53.724Z,3.33
2023-03-29T11:41:36.045Z,3.72
2023-03-29T11:44:19.525Z,2.67
2023-03-29T11:47:13.002Z,3.55
2023-03-29T11:49:57.964Z,3.25
2023-03-29T11:52:40.944Z,3.55
2023-03-29T11:57:50.184Z,2.75
2023-03-29T12:00:27.492Z,1.77
2023-03-29T12:03:11.138Z,1.13
2023-03-29T12:06:04.524Z,2.05
2023-03-29T12:08:37.692Z,1.85
2023-03-29T12:11:17.058Z,2.50
2023-03-29T12:13:49.618Z,6.40
2023-03-29T12:16:41.799Z,6.05
2023-03-29T12:19:26.105Z,5.50
2023-03-29T12:21:57.323Z,5.60
2023-03-29T12:24:32.486Z,6.03
2023-03-29T12:27:12.505Z,2.00
2023-03-29T12:29:50.428Z,2.58
2023-03-29T12:32:56.378Z,3.70
2023-03-29T12:36:14.622Z,4.40
2023-03-29T12:38:52.575Z,2.25
2023-03-29T12:41:41.742Z,1.92
2023-03-29T12:44:28.297Z,2.47
2023-03-29T12:47:02.110Z,1.60
2023-03-29T12:49:38.949Z,1.92
2023-03-29T12:52:35.808Z,3.80
2023-03-29T12:55:31.305Z,5.35
2023-03-29T12:58:08.578Z,3.85
2023-03-29T13:00:45.343Z,2.35
2023-03-29T13:03:34.661Z,4.65
2023-03-29T13:06:09.430Z,6.72
2023-03-29T13:08:38.420Z,2.28
2023-03-29T13:11:10.301Z,7.32
2023-03-29T13:13:41.092Z,2.75
2023-03-29T13:16:17.148Z,2.30
2023-03-29T13:19:03.166Z,2.88
2023-03-29T13:21:45.858Z,2.60
2023-03-29T13:24:50.982Z,2.70
2023-03-29T13:27:45.148Z,6.47
2023-03-29T13:30:36.240Z,2.22
2023-03-29T13:33:14.724Z,2.63
2023-03-29T13:36:08.794Z,3.72
2023-03-29T13:39:07.107Z,5.13
2023-03-29T13:41:41.008Z,1.85
2023-03-29T13:44:26.174Z,1.85
2023-03-29T13:47:33.037Z,8.23
2023-03-29T13:50:06.562Z,4.13
2023-03-29T13:52:39.356Z,12.50
2023-03-29T13:55:21.498Z,5.30
2023-03-29T13:58:04.050Z,6.93
2023-03-29T14:00:38.814Z,6.38
2023-03-29T14:03:12.854Z,5.47
2023-03-29T14:05:44.477Z,5.93
2023-03-29T14:08:26.387Z,8.35
2023-03-29T14:10:56.760Z,2.63
2023-03-29T14:13:26.188Z,3.05
2023-03-29T14:15:57.430Z,3.38
2023-03-29T14:18:27.863Z,3.55
2023-03-29T14:20:56.296Z,4.65
2023-03-29T14:23:36.905Z,2.55
2023-03-29T14:26:15.742Z,7.22
2023-03-29T14:28:49.010Z,9.35
2023-03-29T14:31:37.939Z,7.45
2023-03-29T14:34:19.487Z,4.07
2023-03-29T14:36:49.382Z,2.55
2023-03-29T14:39:20.168Z,5.85
2023-03-29T14:41:57.108Z,20.50
2023-03-29T14:44:33.322Z,4.78
2023-03-29T14:47:03.281Z,6.95
2023-03-29T14:49:32.425Z,9.00
2023-03-29T14:52:00.467Z,3.03
2023-03-29T14:54:31.937Z,5.90
2023-03-29T14:57:00.245Z,8.02
2023-03-29T14:59:39.132Z,8.07
2023-03-29T15:02:27.655Z,3.65
2023-03-29T15:05:04.068Z,11.50
2023-03-29T15:07:34.312Z,4.13
2023-03-29T15:10:05.276Z,6.07
2023-03-29T15:12:33.936Z,5.50
2023-03-29T15:15:02.814Z,22.58
2023-03-29T15:17:50.472Z,8.18
2023-03-29T15:20:28.221Z,16.05
2023-03-29T15:23:19.154Z,3.65
2023-03-29T15:25:59.463Z,15.15
2023-03-29T15:28:33.090Z,10.38
2023-03-29T15:31:10.986Z,2.67
2023-03-29T15:33:40.780Z,6.10
2023-03-29T15:36:10.501Z,8.50
2023-03-29T15:38:44.545Z,5.25
2023-03-29T15:41:14.839Z,6.00
2023-03-29T15:43:43.137Z,11.20
2023-03-29T15:46:13.702Z,7.97
2023-03-29T15:48:41.827Z,10.00
2023-03-29T15:51:12.609Z,23.50
2023-03-29T15:53:41.054Z,14.00
2023-03-29T15:56:13.528Z,7.78
2023-03-29T15:58:41.369Z,6.40
2023-03-29T16:01:36.713Z,4.25
2023-03-29T16:04:16.597Z,9.73
2023-03-29T16:06:46.990Z,5.10
2023-03-29T16:09:15.866Z,4.75
2023-03-29T16:11:44.901Z,3.83
2023-03-29T16:14:27.540Z,9.50
2023-03-29T16:16:58.789Z,4.72
2023-03-29T16:19:27.672Z,3.60
2023-03-29T16:21:56.229Z,5.78
2023-03-29T16:24:26.842Z,3.15
2023-03-29T16:26:57.156Z,2.65
2023-03-29T16:29:25.754Z,3.10
2023-03-29T16:31:54.475Z,4.78
2023-03-29T16:34:23.017Z,3.22
2023-03-29T16:36:51.215Z,3.05
2023-03-29T16:39:19.191Z,2.13
2023-03-29T16:41:49.062Z,3.00
2023-03-29T16:44:22.477Z,5.50
2023-03-29T16:46:54.364Z,3.70
2023-03-29T16:49:22.580Z,6.00
2023-03-29T16:51:50.605Z,3.45
2023-03-29T16:54:19.066Z,4.95
2023-03-29T16:56:47.297Z,17.17
2023-03-29T16:59:15.581Z,5.40
2023-03-29T17:01:43.451Z,4.53
2023-03-29T17:04:11.794Z,4.93
2023-03-29T17:06:39.850Z,4.68
2023-03-29T17:09:07.818Z,5.68
2023-03-29T17:11:36.102Z,7.20
2023-03-29T17:14:03.891Z,4.40
2023-03-29T17:16:31.638Z,4.57
2023-03-29T17:19:00.792Z,7.05
2023-03-29T17:21:29.701Z,7.55
2023-03-29T17:23:57.622Z,7.50
2023-03-29T17:26:26.869Z,9.70
2023-03-29T17:28:54.895Z,6.63
2023-03-29T17:31:22.517Z,8.52
2023-03-29T17:33:52.832Z,12.93
2023-03-29T17:36:24.317Z,18.73
2023-03-29T17:38:54.928Z,17.50
2023-03-29T17:41:23.689Z,21.10
2023-03-29T17:43:52.080Z,32.60
2023-03-29T17:46:23.730Z,45.88
2023-03-29T17:48:51.863Z,45.77
2023-03-29T17:51:20.147Z,37.15
2023-03-29T17:53:48.564Z,34.58
2023-03-29T17:56:16.393Z,32.30
2023-03-29T17:58:44.692Z,33.50
2023-03-29T18:01:15.655Z,52.58
2023-03-29T18:03:43.741Z,46.28
2023-03-29T18:06:14.678Z,46.28
2023-03-29T18:08:43.416Z,53.75
2023-03-29T18:11:17.327Z,36.25
2023-03-29T18:13:45.565Z,29.00
2023-03-29T18:16:14.446Z,18.77
2023-03-29T18:18:43.936Z,13.20
2023-03-29T18:21:12.102Z,15.75
2023-03-29T18:23:46.047Z,34.47
2023-03-29T18:26:16.723Z,32.58
2023-03-29T18:28:49.066Z,17.88
2023-03-29T18:31:20.983Z,17.92
2023-03-29T18:33:49.338Z,14.00
2023-03-29T18:36:18.183Z,16.70
2023-03-29T18:38:47.977Z,14.98
2023-03-29T18:41:16.479Z,46.08
2023-03-29T18:43:45.494Z,50.47
2023-03-29T18:46:14.197Z,46.80
2023-03-29T18:48:42.760Z,43.10
2023-03-29T18:51:13.397Z,30.75
2023-03-29T18:53:44.199Z,36.33
2023-03-29T18:56:12.355Z,23.90
2023-03-29T18:58:42.438Z,22.75
2023-03-29T19:01:11.725Z,29.35
2023-03-29T19:03:40.976Z,20.60
2023-03-29T19:06:12.473Z,29.10
2023-03-29T19:08:42.630Z,28.05
2023-03-29T19:11:15.748Z,31.77
2023-03-29T19:13:46.447Z,33.03
2023-03-29T19:16:15.572Z,34.70
2023-03-29T19:18:44.545Z,29.25
2023-03-29T19:21:14.112Z,28.27
2023-03-29T19:23:42.941Z,22.45
2023-03-29T19:26:12.139Z,20.27
2023-03-29T19:28:41.869Z,16.08
2023-03-29T19:31:11.159Z,9.00
2023-03-29T19:33:40.951Z,15.13
2023-03-29T19:36:09.515Z,20.70
2023-03-29T19:38:38.329Z,31.00
2023-03-29T19:41:08.556Z,35.80
2023-03-29T19:43:37.808Z,33.00
2023-03-29T19:46:12.151Z,26.33
2023-03-29T19:48:40.835Z,20.55
2023-03-29T19:51:09.463Z,17.83
2023-03-29T19:53:39.012Z,19.35
2023-03-29T19:56:11.153Z,18.85
2023-03-29T19:58:39.166Z,23.63
2023-03-29T20:01:07.624Z,23.10
2023-03-29T20:03:36.926Z,29.15
2023-03-29T20:06:06.566Z,23.67
2023-03-29T20:08:37.073Z,18.10
2023-03-29T20:11:10.369Z,14.18
2023-03-29T20:13:41.232Z,18.30
2023-03-29T20:16:11.538Z,23.63
2023-03-29T20:18:40.551Z,25.25
2023-03-29T20:21:09.785Z,38.60
2023-03-29T20:23:37.839Z,36.63
2023-03-29T20:26:05.482Z,50.45
2023-03-29T20:28:33.981Z,58.05
2023-03-29T20:31:08.127Z,51.20
2023-03-29T20:33:36.500Z,42.50
2023-03-29T20:36:04.739Z,41.65
2023-03-29T20:38:33.197Z,29.80
2023-03-29T20:41:01.180Z,26.42
2023-03-29T20:43:29.906Z,24.73
2023-03-29T20:45:58.212Z,24.35
2023-03-29T20:48:31.818Z,30.73
2023-03-29T20:51:03.251Z,22.35
2023-03-29T20:53:35.754Z,21.83
2023-03-29T20:56:03.594Z,42.97
2023-03-29T20:58:32.161Z,32.78
2023-03-29T21:00:59.933Z,39.03
2023-03-29T21:03:27.664Z,25.48
2023-03-29T21:05:58.553Z,13.70
2023-03-29T21:08:28.667Z,11.27
2023-03-29T21:10:56.406Z,11.63
2023-03-29T21:13:24.235Z,18.35
2023-03-29T21:15:52.122Z,19.00
2023-03-29T21:18:20.193Z,13.02
2023-03-29T21:20:49.724Z,12.80
2023-03-29T21:23:17.399Z,10.63
2023-03-29T21:25:45.438Z,8.80
2023-03-29T21:28:13.533Z,10.60
2023-03-29T21:30:41.476Z,9.57
2023-03-29T21:33:09.173Z,7.78
2023-03-29T21:35:37.226Z,4.97
2023-03-29T21:38:04.934Z,9.85
2023-03-29T21:40:32.740Z,5.63
2023-03-29T21:43:00.618Z,4.82
2023-03-29T21:45:28.295Z,6.05
2023-03-29T21:47:56.178Z,8.73
2023-03-29T21:50:25.139Z,8.48
2023-03-29T21:52:52.868Z,10.38
2023-03-29T21:55:20.478Z,13.65
2023-03-29T21:57:48.968Z,21.13
2023-03-29T22:00:18.006Z,11.80
2023-03-29T22:02:46.742Z,16.88
2023-03-29T22:05:15.160Z,21.55
2023-03-29T22:07:42.818Z,24.70
2023-03-29T22:10:12.474Z,13.57
2023-03-29T22:12:41.397Z,11.50
2023-03-29T22:15:13.896Z,7.90
2023-03-29T22:17:43.004Z,4.22
2023-03-29T22:20:13.331Z,1.92
2023-03-29T22:22:45.577Z,3.05
2023-03-29T22:25:13.633Z,10.32
2023-03-29T22:27:44.042Z,7.65
2023-03-29T22:30:12.767Z,7.57
2023-03-29T22:32:40.512Z,11.10
2023-03-29T22:35:09.350Z,10.70
2023-03-29T22:37:42.026Z,14.05
2023-03-29T22:40:11.000Z,10.10
2023-03-29T22:42:38.720Z,9.98
2023-03-29T22:45:07.850Z,21.58
2023-03-29T22:47:35.650Z,8.95
2023-03-29T22:50:03.548Z,10.05
2023-03-29T22:52:31.515Z,6.22
2023-03-29T22:54:59.164Z,6.68
2023-03-29T22:57:26.994Z,5.80
2023-03-29T22:59:54.814Z,4.47
2023-03-29T23:02:22.648Z,5.38
2023-03-29T23:04:50.312Z,13.60
2023-03-29T23:07:18.356Z,12.98
2023-03-29T23:09:46.247Z,18.48
2023-03-29T23:12:13.929Z,10.63
2023-03-29T23:14:42.946Z,15.18
2023-03-29T23:17:10.998Z,17.65
2023-03-29T23:19:41.247Z,20.38
2023-03-29T23:22:08.840Z,10.00
2023-03-29T23:24:36.439Z,7.43
2023-03-29T23:27:05.582Z,13.85
2023-03-29T23:29:34.622Z,9.55
2023-03-29T23:32:02.209Z,13.30
2023-03-29T23:34:30.691Z,6.32
2023-03-29T23:36:58.860Z,4.65
2023-03-29T23:39:26.405Z,3.38
2023-03-29T23:41:53.993Z,5.25
2023-03-29T23:44:21.627Z,9.35
2023-03-29T23:46:49.300Z,11.70
2023-03-29T23:49:17.367Z,8.75
2023-03-29T23:51:45.072Z,9.68
2023-03-29T23:54:13.365Z,5.10
2023-03-29T23:56:41.150Z,4.32
2023-03-29T23:59:09.003Z,4.63
